Terminal Aerodrome Forecast
Issued by NWS

Home | Current Version | Previous Version | Text Only | Print | Product List | Glossary Off
Versions: 1 2 3 4 5 6 7 8 9 10 11 12 13 14 15 16 17 18 19 20 21 22 23 24 25 26 27 28 29 30 31 32 33 34 35 36 37 38 39 40 41 42 43 44 45 46 47 48 49

726
FTUS43 KLOT 121141
TAFGYY
TAF
KGYY 121141Z 1212/1312 25004KT P6SM OVC060
     FM121300 27009KT 6SM -SN BKN035 OVC050
      TEMPO 1214/1216 3SM -SN OVC020
     FM121600 30014G22KT P6SM VCSH BKN025
     FM121900 31023G32KT P6SM BKN035
     FM130200 32017G24KT P6SM FEW035
     FM130800 31011KT P6SM FEW250=

USA.gov is the U.S. government's official web portal to all federal, state and local government web resources and services.